sensor_id;sensor_type;location;lat;lon;timestamp;temperature;humidity
18781;DHT22;9519;51.890;8.970;2022-10-18T00:03:48;17.50;99.90
18781;DHT22;9519;51.890;8.970;2022-10-18T00:08:50;17.50;99.90
18781;DHT22;9519;51.890;8.970;2022-10-18T00:13:54;17.50;99.90
18781;DHT22;9519;51.890;8.970;2022-10-18T00:18:57;17.40;99.90
18781;DHT22;9519;51.890;8.970;2022-10-18T00:23:59;17.40;99.90
18781;DHT22;9519;51.890;8.970;2022-10-18T00:29:04;17.30;99.90
18781;DHT22;9519;51.890;8.970;2022-10-18T00:34:10;17.30;99.90
18781;DHT22;9519;51.890;8.970;2022-10-18T00:39:17;17.20;99.90
18781;DHT22;9519;51.890;8.970;2022-10-18T00:45:01;17.20;99.90
18781;DHT22;9519;51.890;8.970;2022-10-18T00:50:15;17.20;99.90
18781;DHT22;9519;51.890;8.970;2022-10-18T00:55:20;17.10;99.90
18781;DHT22;9519;51.890;8.970;2022-10-18T01:00:23;17.10;99.90
18781;DHT22;9519;51.890;8.970;2022-10-18T01:05:26;17.10;99.90
18781;DHT22;9519;51.890;8.970;2022-10-18T01:10:32;17.00;99.90
18781;DHT22;9519;51.890;8.970;2022-10-18T01:15:55;17.00;99.90
18781;DHT22;9519;51.890;8.970;2022-10-18T01:21:15;17.00;99.90
18781;DHT22;9519;51.890;8.970;2022-10-18T01:26:37;17.00;99.90
18781;DHT22;9519;51.890;8.970;2022-10-18T01:31:57;17.00;99.90
18781;DHT22;9519;51.890;8.970;2022-10-18T01:37:04;17.00;99.90
18781;DHT22;9519;51.890;8.970;2022-10-18T01:42:11;16.90;99.90
18781;DHT22;9519;51.890;8.970;2022-10-18T01:47:19;16.90;99.90
18781;DHT22;9519;51.890;8.970;2022-10-18T01:52:23;16.90;99.90
18781;DHT22;9519;51.890;8.970;2022-10-18T01:57:31;16.90;99.90
18781;DHT22;9519;51.890;8.970;2022-10-18T02:02:45;16.90;99.90
18781;DHT22;9519;51.890;8.970;2022-10-18T02:07:55;16.80;99.90
18781;DHT22;9519;51.890;8.970;2022-10-18T02:13:05;16.80;99.90
18781;DHT22;9519;51.890;8.970;2022-10-18T02:18:14;16.70;99.90
18781;DHT22;9519;51.890;8.970;2022-10-18T02:23:21;16.70;99.90
18781;DHT22;9519;51.890;8.970;2022-10-18T02:28:25;16.70;99.90
18781;DHT22;9519;51.890;8.970;2022-10-18T02:33:35;16.70;99.90
18781;DHT22;9519;51.890;8.970;2022-10-18T02:38:46;16.70;99.90
18781;DHT22;9519;51.890;8.970;2022-10-18T02:43:53;16.70;99.90
18781;DHT22;9519;51.890;8.970;2022-10-18T02:48:57;16.70;99.90
18781;DHT22;9519;51.890;8.970;2022-10-18T02:53:59;16.70;99.90
18781;DHT22;9519;51.890;8.970;2022-10-18T02:59:01;16.70;99.90
18781;DHT22;9519;51.890;8.970;2022-10-18T03:04:06;16.70;99.90
18781;DHT22;9519;51.890;8.970;2022-10-18T03:09:08;16.70;99.90
18781;DHT22;9519;51.890;8.970;2022-10-18T03:14:11;16.70;99.90
18781;DHT22;9519;51.890;8.970;2022-10-18T03:19:14;16.70;99.90
18781;DHT22;9519;51.890;8.970;2022-10-18T03:24:16;16.70;99.90
18781;DHT22;9519;51.890;8.970;2022-10-18T03:29:18;16.70;99.90
18781;DHT22;9519;51.890;8.970;2022-10-18T03:34:22;16.60;99.90
18781;DHT22;9519;51.890;8.970;2022-10-18T03:39:24;16.60;99.90
18781;DHT22;9519;51.890;8.970;2022-10-18T03:44:26;16.60;99.90
18781;DHT22;9519;51.890;8.970;2022-10-18T03:49:30;16.60;99.90
18781;DHT22;9519;51.890;8.970;2022-10-18T03:54:32;16.60;99.90
18781;DHT22;9519;51.890;8.970;2022-10-18T03:59:34;16.60;99.90
18781;DHT22;9519;51.890;8.970;2022-10-18T04:04:37;16.60;99.90
18781;DHT22;9519;51.890;8.970;2022-10-18T04:09:39;16.60;99.90
18781;DHT22;9519;51.890;8.970;2022-10-18T04:14:41;16.60;99.90
18781;DHT22;9519;51.890;8.970;2022-10-18T04:19:45;16.60;99.90
18781;DHT22;9519;51.890;8.970;2022-10-18T04:24:47;16.60;99.90
18781;DHT22;9519;51.890;8.970;2022-10-18T04:29:49;16.60;99.90
18781;DHT22;9519;51.890;8.970;2022-10-18T04:34:52;16.60;99.90
18781;DHT22;9519;51.890;8.970;2022-10-18T04:39:54;16.60;99.90
18781;DHT22;9519;51.890;8.970;2022-10-18T04:44:56;16.60;99.90
18781;DHT22;9519;51.890;8.970;2022-10-18T04:50:00;16.60;99.90
18781;DHT22;9519;51.890;8.970;2022-10-18T04:55:02;16.60;99.90
18781;DHT22;9519;51.890;8.970;2022-10-18T05:00:06;16.60;99.90
18781;DHT22;9519;51.890;8.970;2022-10-18T05:05:10;16.60;99.90
18781;DHT22;9519;51.890;8.970;2022-10-18T05:10:12;16.60;99.90
18781;DHT22;9519;51.890;8.970;2022-10-18T05:15:14;16.50;99.90
18781;DHT22;9519;51.890;8.970;2022-10-18T05:20:17;16.50;99.90
18781;DHT22;9519;51.890;8.970;2022-10-18T05:25:20;16.50;99.90
18781;DHT22;9519;51.890;8.970;2022-10-18T05:30:22;16.50;99.90
18781;DHT22;9519;51.890;8.970;2022-10-18T05:35:25;16.50;99.90
18781;DHT22;9519;51.890;8.970;2022-10-18T05:40:27;16.50;99.90
18781;DHT22;9519;51.890;8.970;2022-10-18T05:45:29;16.50;99.90
18781;DHT22;9519;51.890;8.970;2022-10-18T05:50:34;16.40;99.90
18781;DHT22;9519;51.890;8.970;2022-10-18T05:55:36;16.40;99.90
18781;DHT22;9519;51.890;8.970;2022-10-18T06:00:38;16.40;99.90
18781;DHT22;9519;51.890;8.970;2022-10-18T06:05:42;16.40;99.90
18781;DHT22;9519;51.890;8.970;2022-10-18T06:10:44;16.30;99.90
18781;DHT22;9519;51.890;8.970;2022-10-18T06:15:46;16.40;99.90
18781;DHT22;9519;51.890;8.970;2022-10-18T06:20:55;16.30;99.90
18781;DHT22;9519;51.890;8.970;2022-10-18T06:25:58;16.30;99.90
18781;DHT22;9519;51.890;8.970;2022-10-18T06:31:02;16.30;99.90
18781;DHT22;9519;51.890;8.970;2022-10-18T06:36:10;16.20;99.90
18781;DHT22;9519;51.890;8.970;2022-10-18T06:41:13;16.30;99.90
18781;DHT22;9519;51.890;8.970;2022-10-18T06:46:15;16.20;99.90
18781;DHT22;9519;51.890;8.970;2022-10-18T06:51:19;16.30;99.90
18781;DHT22;9519;51.890;8.970;2022-10-18T06:56:23;16.20;99.90
18781;DHT22;9519;51.890;8.970;2022-10-18T07:01:25;16.20;99.90
18781;DHT22;9519;51.890;8.970;2022-10-18T07:06:29;16.20;99.90
18781;DHT22;9519;51.890;8.970;2022-10-18T07:11:32;16.30;99.90
18781;DHT22;9519;51.890;8.970;2022-10-18T07:16:34;16.30;99.90
18781;DHT22;9519;51.890;8.970;2022-10-18T07:21:37;16.30;99.90
18781;DHT22;9519;51.890;8.970;2022-10-18T07:26:40;16.30;99.90
18781;DHT22;9519;51.890;8.970;2022-10-18T07:31:42;16.30;99.90
18781;DHT22;9519;51.890;8.970;2022-10-18T07:36:46;16.40;99.90
18781;DHT22;9519;51.890;8.970;2022-10-18T07:41:48;16.40;99.90
18781;DHT22;9519;51.890;8.970;2022-10-18T07:46:50;16.50;99.90
18781;DHT22;9519;51.890;8.970;2022-10-18T07:51:53;16.60;99.90
18781;DHT22;9519;51.890;8.970;2022-10-18T07:56:55;16.70;99.90
18781;DHT22;9519;51.890;8.970;2022-10-18T08:01:57;16.80;99.90
18781;DHT22;9519;51.890;8.970;2022-10-18T08:07:02;16.80;99.90
18781;DHT22;9519;51.890;8.970;2022-10-18T08:12:04;16.80;99.90
18781;DHT22;9519;51.890;8.970;2022-10-18T08:17:06;16.80;99.90
18781;DHT22;9519;51.890;8.970;2022-10-18T08:22:10;16.80;99.90
18781;DHT22;9519;51.890;8.970;2022-10-18T08:27:12;16.80;99.90
18781;DHT22;9519;51.890;8.970;2022-10-18T08:32:14;16.80;99.90
18781;DHT22;9519;51.890;8.970;2022-10-18T08:37:17;16.80;99.90
18781;DHT22;9519;51.890;8.970;2022-10-18T08:47:57;16.70;99.90
18781;DHT22;9519;51.890;8.970;2022-10-18T08:53:08;16.60;99.90
18781;DHT22;9519;51.890;8.970;2022-10-18T08:58:19;16.60;99.90
18781;DHT22;9519;51.890;8.970;2022-10-18T09:09:05;16.70;99.90
18781;DHT22;9519;51.890;8.970;2022-10-18T09:14:36;16.70;99.90
18781;DHT22;9519;51.890;8.970;2022-10-18T09:20:06;16.70;99.90
18781;DHT22;9519;51.890;8.970;2022-10-18T09:25:21;16.70;99.90
18781;DHT22;9519;51.890;8.970;2022-10-18T09:30:35;16.60;99.90
18781;DHT22;9519;51.890;8.970;2022-10-18T09:35:46;16.70;99.90
18781;DHT22;9519;51.890;8.970;2022-10-18T09:40:55;16.70;99.90
18781;DHT22;9519;51.890;8.970;2022-10-18T09:46:01;16.80;99.90
18781;DHT22;9519;51.890;8.970;2022-10-18T09:51:09;16.90;99.90
18781;DHT22;9519;51.890;8.970;2022-10-18T09:56:22;16.90;99.90
18781;DHT22;9519;51.890;8.970;2022-10-18T10:01:29;17.00;99.90
18781;DHT22;9519;51.890;8.970;2022-10-18T10:06:32;17.00;99.90
18781;DHT22;9519;51.890;8.970;2022-10-18T10:11:44;17.00;99.90
18781;DHT22;9519;51.890;8.970;2022-10-18T10:16:50;17.00;99.90
18781;DHT22;9519;51.890;8.970;2022-10-18T10:22:02;17.10;99.90
18781;DHT22;9519;51.890;8.970;2022-10-18T10:27:15;17.20;99.90
18781;DHT22;9519;51.890;8.970;2022-10-18T10:32:22;17.10;99.90
18781;DHT22;9519;51.890;8.970;2022-10-18T10:37:29;17.10;99.90
18781;DHT22;9519;51.890;8.970;2022-10-18T10:42:37;17.20;99.90
18781;DHT22;9519;51.890;8.970;2022-10-18T10:47:54;17.20;99.90
18781;DHT22;9519;51.890;8.970;2022-10-18T10:53:05;17.20;99.90
18781;DHT22;9519;51.890;8.970;2022-10-18T10:58:21;17.30;99.90
18781;DHT22;9519;51.890;8.970;2022-10-18T11:03:24;17.30;99.90
18781;DHT22;9519;51.890;8.970;2022-10-18T11:08:31;17.40;99.90
18781;DHT22;9519;51.890;8.970;2022-10-18T11:13:48;17.40;99.90
18781;DHT22;9519;51.890;8.970;2022-10-18T11:18:56;17.40;99.90
18781;DHT22;9519;51.890;8.970;2022-10-18T11:24:01;17.40;99.90
18781;DHT22;9519;51.890;8.970;2022-10-18T11:29:26;17.50;99.90
18781;DHT22;9519;51.890;8.970;2022-10-18T11:34:52;17.60;99.90
18781;DHT22;9519;51.890;8.970;2022-10-18T11:40:14;17.60;99.90
18781;DHT22;9519;51.890;8.970;2022-10-18T11:45:36;17.60;99.90
18781;DHT22;9519;51.890;8.970;2022-10-18T11:50:49;17.60;99.90
18781;DHT22;9519;51.890;8.970;2022-10-18T11:56:04;17.60;99.90
18781;DHT22;9519;51.890;8.970;2022-10-18T12:01:23;17.70;99.90
18781;DHT22;9519;51.890;8.970;2022-10-18T12:06:36;17.70;99.90
18781;DHT22;9519;51.890;8.970;2022-10-18T12:11:45;17.70;99.90
18781;DHT22;9519;51.890;8.970;2022-10-18T12:16:53;17.60;99.90
18781;DHT22;9519;51.890;8.970;2022-10-18T12:22:13;17.50;99.90
18781;DHT22;9519;51.890;8.970;2022-10-18T12:27:24;17.50;99.90
18781;DHT22;9519;51.890;8.970;2022-10-18T12:32:35;17.60;99.90
18781;DHT22;9519;51.890;8.970;2022-10-18T12:38:11;17.80;99.90
18781;DHT22;9519;51.890;8.970;2022-10-18T12:43:22;17.60;99.90
18781;DHT22;9519;51.890;8.970;2022-10-18T12:48:36;17.60;99.90
18781;DHT22;9519;51.890;8.970;2022-10-18T12:53:39;17.60;99.90
18781;DHT22;9519;51.890;8.970;2022-10-18T12:58:44;17.50;99.90
18781;DHT22;9519;51.890;8.970;2022-10-18T13:03:52;17.50;99.90
18781;DHT22;9519;51.890;8.970;2022-10-18T13:09:15;17.50;99.90
18781;DHT22;9519;51.890;8.970;2022-10-18T13:14:52;17.50;99.90
18781;DHT22;9519;51.890;8.970;2022-10-18T13:20:14;17.50;99.90
18781;DHT22;9519;51.890;8.970;2022-10-18T13:25:28;17.50;99.90
18781;DHT22;9519;51.890;8.970;2022-10-18T13:30:46;17.50;99.90
18781;DHT22;9519;51.890;8.970;2022-10-18T13:35:57;17.50;99.90
18781;DHT22;9519;51.890;8.970;2022-10-18T13:41:02;17.70;99.90
18781;DHT22;9519;51.890;8.970;2022-10-18T13:46:05;17.80;99.90
18781;DHT22;9519;51.890;8.970;2022-10-18T13:51:29;17.80;99.90
18781;DHT22;9519;51.890;8.970;2022-10-18T13:57:02;17.80;99.90
18781;DHT22;9519;51.890;8.970;2022-10-18T14:02:41;17.60;99.90
18781;DHT22;9519;51.890;8.970;2022-10-18T14:08:01;17.50;99.90
18781;DHT22;9519;51.890;8.970;2022-10-18T14:13:20;17.50;99.90
18781;DHT22;9519;51.890;8.970;2022-10-18T14:18:27;17.50;99.90
18781;DHT22;9519;51.890;8.970;2022-10-18T14:23:36;17.50;99.90
18781;DHT22;9519;51.890;8.970;2022-10-18T14:28:43;17.60;99.90
18781;DHT22;9519;51.890;8.970;2022-10-18T14:33:50;17.60;99.90
18781;DHT22;9519;51.890;8.970;2022-10-18T14:38:56;17.60;99.90
18781;DHT22;9519;51.890;8.970;2022-10-18T14:44:16;17.70;99.90
18781;DHT22;9519;51.890;8.970;2022-10-18T14:49:20;17.80;99.90
18781;DHT22;9519;51.890;8.970;2022-10-18T14:54:28;17.90;99.90
18781;DHT22;9519;51.890;8.970;2022-10-18T14:59:37;18.00;99.90
18781;DHT22;9519;51.890;8.970;2022-10-18T15:04:46;18.10;99.90
18781;DHT22;9519;51.890;8.970;2022-10-18T15:09:59;18.20;99.90
18781;DHT22;9519;51.890;8.970;2022-10-18T15:15:04;18.20;99.90
18781;DHT22;9519;51.890;8.970;2022-10-18T15:20:19;18.20;99.90
18781;DHT22;9519;51.890;8.970;2022-10-18T15:25:27;18.20;99.90
18781;DHT22;9519;51.890;8.970;2022-10-18T15:30:37;18.10;99.50
18781;DHT22;9519;51.890;8.970;2022-10-18T15:35:42;17.90;98.90
18781;DHT22;9519;51.890;8.970;2022-10-18T15:40:46;17.70;98.90
18781;DHT22;9519;51.890;8.970;2022-10-18T15:45:50;17.50;98.90
18781;DHT22;9519;51.890;8.970;2022-10-18T15:50:55;17.40;98.80
18781;DHT22;9519;51.890;8.970;2022-10-18T15:56:02;17.20;98.80
18781;DHT22;9519;51.890;8.970;2022-10-18T16:01:13;17.00;98.70
18781;DHT22;9519;51.890;8.970;2022-10-18T16:06:17;16.90;98.60
18781;DHT22;9519;51.890;8.970;2022-10-18T16:11:22;16.80;98.70
18781;DHT22;9519;51.890;8.970;2022-10-18T16:16:27;16.70;99.20
18781;DHT22;9519;51.890;8.970;2022-10-18T16:21:31;16.60;99.00
18781;DHT22;9519;51.890;8.970;2022-10-18T16:26:36;16.40;99.00
18781;DHT22;9519;51.890;8.970;2022-10-18T16:31:38;16.30;99.00
18781;DHT22;9519;51.890;8.970;2022-10-18T16:36:40;16.20;99.00
18781;DHT22;9519;51.890;8.970;2022-10-18T16:41:44;16.10;99.00
18781;DHT22;9519;51.890;8.970;2022-10-18T16:46:47;15.80;99.10
18781;DHT22;9519;51.890;8.970;2022-10-18T16:51:49;15.70;99.40
18781;DHT22;9519;51.890;8.970;2022-10-18T16:56:53;15.50;99.50
18781;DHT22;9519;51.890;8.970;2022-10-18T17:01:55;15.40;99.60
18781;DHT22;9519;51.890;8.970;2022-10-18T17:06:57;15.20;99.70
18781;DHT22;9519;51.890;8.970;2022-10-18T17:12:01;15.00;99.80
18781;DHT22;9519;51.890;8.970;2022-10-18T17:17:03;14.80;99.90
18781;DHT22;9519;51.890;8.970;2022-10-18T17:22:05;14.60;99.90
18781;DHT22;9519;51.890;8.970;2022-10-18T17:27:09;14.50;99.90
18781;DHT22;9519;51.890;8.970;2022-10-18T17:32:12;14.30;99.90
18781;DHT22;9519;51.890;8.970;2022-10-18T17:37:14;14.20;99.90
18781;DHT22;9519;51.890;8.970;2022-10-18T17:42:17;14.00;99.90
18781;DHT22;9519;51.890;8.970;2022-10-18T17:47:21;13.90;99.90
18781;DHT22;9519;51.890;8.970;2022-10-18T17:52:23;13.90;99.90
18781;DHT22;9519;51.890;8.970;2022-10-18T17:57:26;13.80;99.90
18781;DHT22;9519;51.890;8.970;2022-10-18T18:02:28;13.70;99.90
18781;DHT22;9519;51.890;8.970;2022-10-18T18:07:30;13.60;99.90
18781;DHT22;9519;51.890;8.970;2022-10-18T18:12:34;13.50;99.90
18781;DHT22;9519;51.890;8.970;2022-10-18T18:17:36;13.50;99.90
18781;DHT22;9519;51.890;8.970;2022-10-18T18:22:38;13.40;99.90
18781;DHT22;9519;51.890;8.970;2022-10-18T18:27:42;13.30;99.90
18781;DHT22;9519;51.890;8.970;2022-10-18T18:32:44;13.30;99.90
18781;DHT22;9519;51.890;8.970;2022-10-18T18:37:49;13.30;99.90
18781;DHT22;9519;51.890;8.970;2022-10-18T18:42:52;13.20;99.90
18781;DHT22;9519;51.890;8.970;2022-10-18T18:47:54;13.20;99.90
18781;DHT22;9519;51.890;8.970;2022-10-18T18:52:57;13.10;99.90
18781;DHT22;9519;51.890;8.970;2022-10-18T18:58:00;13.00;99.90
18781;DHT22;9519;51.890;8.970;2022-10-18T19:03:03;12.90;99.90
18781;DHT22;9519;51.890;8.970;2022-10-18T19:08:05;12.90;99.90
18781;DHT22;9519;51.890;8.970;2022-10-18T19:13:09;12.80;99.90
18781;DHT22;9519;51.890;8.970;2022-10-18T19:18:11;12.70;99.90
18781;DHT22;9519;51.890;8.970;2022-10-18T19:23:13;12.70;99.90
18781;DHT22;9519;51.890;8.970;2022-10-18T19:28:16;12.70;99.90
18781;DHT22;9519;51.890;8.970;2022-10-18T19:33:18;12.60;99.90
18781;DHT22;9519;51.890;8.970;2022-10-18T19:38:21;12.60;99.90
18781;DHT22;9519;51.890;8.970;2022-10-18T19:43:25;12.50;99.90
18781;DHT22;9519;51.890;8.970;2022-10-18T19:48:28;12.50;99.90
18781;DHT22;9519;51.890;8.970;2022-10-18T19:53:30;12.40;99.90
18781;DHT22;9519;51.890;8.970;2022-10-18T19:58:33;12.30;99.90
18781;DHT22;9519;51.890;8.970;2022-10-18T20:03:36;12.20;99.90
18781;DHT22;9519;51.890;8.970;2022-10-18T20:08:39;12.10;99.90
18781;DHT22;9519;51.890;8.970;2022-10-18T20:13:42;12.10;99.90
18781;DHT22;9519;51.890;8.970;2022-10-18T20:18:45;12.00;99.90
18781;DHT22;9519;51.890;8.970;2022-10-18T20:23:47;12.00;99.90
18781;DHT22;9519;51.890;8.970;2022-10-18T20:28:51;11.90;99.90
18781;DHT22;9519;51.890;8.970;2022-10-18T20:33:58;11.90;99.90
18781;DHT22;9519;51.890;8.970;2022-10-18T20:39:03;11.80;99.90
18781;DHT22;9519;51.890;8.970;2022-10-18T20:44:11;11.80;99.90
18781;DHT22;9519;51.890;8.970;2022-10-18T20:49:15;11.70;99.90
18781;DHT22;9519;51.890;8.970;2022-10-18T20:54:17;11.60;99.90
18781;DHT22;9519;51.890;8.970;2022-10-18T20:59:21;11.50;99.90
18781;DHT22;9519;51.890;8.970;2022-10-18T21:04:23;11.40;99.90
18781;DHT22;9519;51.890;8.970;2022-10-18T21:09:25;11.30;99.90
18781;DHT22;9519;51.890;8.970;2022-10-18T21:14:29;11.30;99.90
18781;DHT22;9519;51.890;8.970;2022-10-18T21:19:31;11.30;99.90
18781;DHT22;9519;51.890;8.970;2022-10-18T21:24:33;11.20;99.90
18781;DHT22;9519;51.890;8.970;2022-10-18T21:29:37;11.10;99.90
18781;DHT22;9519;51.890;8.970;2022-10-18T21:34:39;11.00;99.90
18781;DHT22;9519;51.890;8.970;2022-10-18T21:39:41;11.10;99.90
18781;DHT22;9519;51.890;8.970;2022-10-18T21:44:45;11.10;99.90
18781;DHT22;9519;51.890;8.970;2022-10-18T21:49:47;11.10;99.90
18781;DHT22;9519;51.890;8.970;2022-10-18T21:54:49;11.10;99.90
18781;DHT22;9519;51.890;8.970;2022-10-18T21:59:52;11.10;99.90
18781;DHT22;9519;51.890;8.970;2022-10-18T22:04:54;11.10;99.90
18781;DHT22;9519;51.890;8.970;2022-10-18T22:09:56;11.10;99.90
18781;DHT22;9519;51.890;8.970;2022-10-18T22:15:02;11.10;99.90
18781;DHT22;9519;51.890;8.970;2022-10-18T22:20:05;11.10;99.90
18781;DHT22;9519;51.890;8.970;2022-10-18T22:25:08;11.00;99.90
18781;DHT22;9519;51.890;8.970;2022-10-18T22:30:11;11.00;99.90
18781;DHT22;9519;51.890;8.970;2022-10-18T22:35:14;10.80;99.90
18781;DHT22;9519;51.890;8.970;2022-10-18T22:40:16;10.70;99.90
18781;DHT22;9519;51.890;8.970;2022-10-18T22:45:19;10.70;99.90
18781;DHT22;9519;51.890;8.970;2022-10-18T22:50:21;10.60;99.90
18781;DHT22;9519;51.890;8.970;2022-10-18T22:55:24;10.60;99.90
18781;DHT22;9519;51.890;8.970;2022-10-18T23:00:27;10.50;99.90
18781;DHT22;9519;51.890;8.970;2022-10-18T23:05:29;10.50;99.90
18781;DHT22;9519;51.890;8.970;2022-10-18T23:10:37;10.50;99.90
18781;DHT22;9519;51.890;8.970;2022-10-18T23:15:40;10.50;99.90
18781;DHT22;9519;51.890;8.970;2022-10-18T23:20:43;10.40;99.90
18781;DHT22;9519;51.890;8.970;2022-10-18T23:25:45;10.40;99.90
18781;DHT22;9519;51.890;8.970;2022-10-18T23:30:48;10.40;99.90
18781;DHT22;9519;51.890;8.970;2022-10-18T23:35:52;10.40;99.90
18781;DHT22;9519;51.890;8.970;2022-10-18T23:40:55;10.30;99.90
18781;DHT22;9519;51.890;8.970;2022-10-18T23:45:58;10.30;99.90
18781;DHT22;9519;51.890;8.970;2022-10-18T23:51:04;10.30;99.90
18781;DHT22;9519;51.890;8.970;2022-10-18T23:56:08;10.20;99.90
